sensor_id;sensor_type;location;lat;lon;timestamp;temperature;humidity
3504;DHT22;1766;53.490;10.174;2022-09-09T00:02:05;21.50;56.40
3504;DHT22;1766;53.490;10.174;2022-09-09T00:04:20;21.50;56.50
3504;DHT22;1766;53.490;10.174;2022-09-09T00:06:30;21.50;56.50
3504;DHT22;1766;53.490;10.174;2022-09-09T00:08:41;21.50;56.40
3504;DHT22;1766;53.490;10.174;2022-09-09T00:10:51;21.50;56.50
3504;DHT22;1766;53.490;10.174;2022-09-09T00:13:05;21.50;56.40
3504;DHT22;1766;53.490;10.174;2022-09-09T00:15:19;21.50;56.40
3504;DHT22;1766;53.490;10.174;2022-09-09T00:17:32;21.50;56.50
3504;DHT22;1766;53.490;10.174;2022-09-09T00:19:44;21.40;56.50
3504;DHT22;1766;53.490;10.174;2022-09-09T00:21:56;21.40;56.50
3504;DHT22;1766;53.490;10.174;2022-09-09T00:24:11;21.40;56.50
3504;DHT22;1766;53.490;10.174;2022-09-09T00:26:30;21.40;56.50
3504;DHT22;1766;53.490;10.174;2022-09-09T00:28:39;21.40;56.50
3504;DHT22;1766;53.490;10.174;2022-09-09T00:30:43;21.40;56.50
3504;DHT22;1766;53.490;10.174;2022-09-09T00:32:50;21.50;56.50
3504;DHT22;1766;53.490;10.174;2022-09-09T00:35:02;21.50;56.40
3504;DHT22;1766;53.490;10.174;2022-09-09T00:37:07;21.50;56.60
3504;DHT22;1766;53.490;10.174;2022-09-09T00:39:17;21.50;56.50
3504;DHT22;1766;53.490;10.174;2022-09-09T00:41:29;21.50;56.60
3504;DHT22;1766;53.490;10.174;2022-09-09T00:43:40;21.50;56.60
3504;DHT22;1766;53.490;10.174;2022-09-09T00:45:56;21.50;56.50
3504;DHT22;1766;53.490;10.174;2022-09-09T00:48:09;21.50;56.60
3504;DHT22;1766;53.490;10.174;2022-09-09T00:50:35;21.50;56.60
3504;DHT22;1766;53.490;10.174;2022-09-09T00:52:53;21.50;56.60
3504;DHT22;1766;53.490;10.174;2022-09-09T00:55:07;21.50;56.60
3504;DHT22;1766;53.490;10.174;2022-09-09T00:57:22;21.50;56.60
3504;DHT22;1766;53.490;10.174;2022-09-09T00:59:32;21.60;56.70
3504;DHT22;1766;53.490;10.174;2022-09-09T01:01:38;21.60;56.60
3504;DHT22;1766;53.490;10.174;2022-09-09T01:03:45;21.60;56.60
3504;DHT22;1766;53.490;10.174;2022-09-09T01:05:58;21.60;56.70
3504;DHT22;1766;53.490;10.174;2022-09-09T01:08:11;21.50;56.70
3504;DHT22;1766;53.490;10.174;2022-09-09T01:10:27;21.50;56.80
3504;DHT22;1766;53.490;10.174;2022-09-09T01:12:39;21.50;56.80
3504;DHT22;1766;53.490;10.174;2022-09-09T01:14:48;21.50;56.90
3504;DHT22;1766;53.490;10.174;2022-09-09T01:16:55;21.50;56.90
3504;DHT22;1766;53.490;10.174;2022-09-09T01:19:01;21.60;56.90
3504;DHT22;1766;53.490;10.174;2022-09-09T01:21:13;21.50;56.80
3504;DHT22;1766;53.490;10.174;2022-09-09T01:23:35;21.40;56.70
3504;DHT22;1766;53.490;10.174;2022-09-09T01:28:22;21.50;56.80
3504;DHT22;1766;53.490;10.174;2022-09-09T01:30:26;21.50;56.50
3504;DHT22;1766;53.490;10.174;2022-09-09T01:32:40;21.50;56.50
3504;DHT22;1766;53.490;10.174;2022-09-09T01:34:43;21.40;56.50
3504;DHT22;1766;53.490;10.174;2022-09-09T01:36:49;21.40;56.80
3504;DHT22;1766;53.490;10.174;2022-09-09T01:38:53;21.40;56.40
3504;DHT22;1766;53.490;10.174;2022-09-09T01:40:55;21.50;56.30
3504;DHT22;1766;53.490;10.174;2022-09-09T01:43:00;21.40;56.30
3504;DHT22;1766;53.490;10.174;2022-09-09T01:45:04;21.40;56.40
3504;DHT22;1766;53.490;10.174;2022-09-09T01:47:07;21.40;56.40
3504;DHT22;1766;53.490;10.174;2022-09-09T01:49:09;21.50;56.40
3504;DHT22;1766;53.490;10.174;2022-09-09T01:51:13;21.50;56.50
3504;DHT22;1766;53.490;10.174;2022-09-09T01:53:16;21.50;56.40
3504;DHT22;1766;53.490;10.174;2022-09-09T01:55:26;21.50;56.50
3504;DHT22;1766;53.490;10.174;2022-09-09T01:57:33;21.40;56.50
3504;DHT22;1766;53.490;10.174;2022-09-09T01:59:51;21.40;56.50
3504;DHT22;1766;53.490;10.174;2022-09-09T02:02:09;21.30;56.50
3504;DHT22;1766;53.490;10.174;2022-09-09T02:04:18;21.40;56.70
3504;DHT22;1766;53.490;10.174;2022-09-09T02:06:33;21.50;56.80
3504;DHT22;1766;53.490;10.174;2022-09-09T02:08:42;21.50;56.80
3504;DHT22;1766;53.490;10.174;2022-09-09T02:10:53;21.50;56.80
3504;DHT22;1766;53.490;10.174;2022-09-09T02:13:03;21.50;56.90
3504;DHT22;1766;53.490;10.174;2022-09-09T02:15:17;21.50;56.80
3504;DHT22;1766;53.490;10.174;2022-09-09T02:17:26;21.60;56.90
3504;DHT22;1766;53.490;10.174;2022-09-09T02:19:32;21.50;56.80
3504;DHT22;1766;53.490;10.174;2022-09-09T02:21:36;21.50;56.80
3504;DHT22;1766;53.490;10.174;2022-09-09T02:23:41;21.50;56.80
3504;DHT22;1766;53.490;10.174;2022-09-09T02:25:44;21.50;56.80
3504;DHT22;1766;53.490;10.174;2022-09-09T02:27:48;21.60;57.00
3504;DHT22;1766;53.490;10.174;2022-09-09T02:29:52;21.40;56.80
3504;DHT22;1766;53.490;10.174;2022-09-09T02:32:00;21.50;57.00
3504;DHT22;1766;53.490;10.174;2022-09-09T02:34:05;21.40;56.90
3504;DHT22;1766;53.490;10.174;2022-09-09T02:36:11;21.40;57.00
3504;DHT22;1766;53.490;10.174;2022-09-09T02:38:16;21.40;56.80
3504;DHT22;1766;53.490;10.174;2022-09-09T02:40:18;21.40;56.80
3504;DHT22;1766;53.490;10.174;2022-09-09T02:42:21;21.30;56.60
3504;DHT22;1766;53.490;10.174;2022-09-09T02:44:24;21.30;56.70
3504;DHT22;1766;53.490;10.174;2022-09-09T02:46:37;21.30;56.70
3504;DHT22;1766;53.490;10.174;2022-09-09T02:48:59;21.30;56.80
3504;DHT22;1766;53.490;10.174;2022-09-09T02:51:07;21.20;56.70
3504;DHT22;1766;53.490;10.174;2022-09-09T02:53:16;21.20;56.60
3504;DHT22;1766;53.490;10.174;2022-09-09T02:55:24;21.30;56.60
3504;DHT22;1766;53.490;10.174;2022-09-09T02:57:33;21.20;56.60
3504;DHT22;1766;53.490;10.174;2022-09-09T02:59:36;21.20;56.60
3504;DHT22;1766;53.490;10.174;2022-09-09T03:01:38;21.20;56.40
3504;DHT22;1766;53.490;10.174;2022-09-09T03:03:40;21.10;56.30
3504;DHT22;1766;53.490;10.174;2022-09-09T03:05:44;21.20;56.40
3504;DHT22;1766;53.490;10.174;2022-09-09T03:07:46;21.20;56.50
3504;DHT22;1766;53.490;10.174;2022-09-09T03:09:50;21.20;56.50
3504;DHT22;1766;53.490;10.174;2022-09-09T03:11:54;21.20;56.30
3504;DHT22;1766;53.490;10.174;2022-09-09T03:13:56;21.20;56.20
3504;DHT22;1766;53.490;10.174;2022-09-09T03:15:58;21.20;56.20
3504;DHT22;1766;53.490;10.174;2022-09-09T03:18:00;21.20;56.20
3504;DHT22;1766;53.490;10.174;2022-09-09T03:20:14;21.20;56.30
3504;DHT22;1766;53.490;10.174;2022-09-09T03:22:17;21.10;56.00
3504;DHT22;1766;53.490;10.174;2022-09-09T03:24:19;21.00;56.00
3504;DHT22;1766;53.490;10.174;2022-09-09T03:26:20;21.00;56.20
3504;DHT22;1766;53.490;10.174;2022-09-09T03:28:23;21.10;56.30
3504;DHT22;1766;53.490;10.174;2022-09-09T03:30:30;21.10;56.40
3504;DHT22;1766;53.490;10.174;2022-09-09T03:32:32;21.10;56.30
3504;DHT22;1766;53.490;10.174;2022-09-09T03:34:34;21.00;56.10
3504;DHT22;1766;53.490;10.174;2022-09-09T03:36:37;21.10;56.10
3504;DHT22;1766;53.490;10.174;2022-09-09T03:38:40;21.20;56.20
3504;DHT22;1766;53.490;10.174;2022-09-09T03:40:49;21.00;56.10
3504;DHT22;1766;53.490;10.174;2022-09-09T03:42:51;20.90;56.10
3504;DHT22;1766;53.490;10.174;2022-09-09T03:44:53;21.00;56.20
3504;DHT22;1766;53.490;10.174;2022-09-09T03:46:55;20.90;56.20
3504;DHT22;1766;53.490;10.174;2022-09-09T03:48:56;20.90;56.30
3504;DHT22;1766;53.490;10.174;2022-09-09T03:50:58;20.90;56.30
3504;DHT22;1766;53.490;10.174;2022-09-09T03:53:01;20.90;56.30
3504;DHT22;1766;53.490;10.174;2022-09-09T03:55:05;20.90;56.20
3504;DHT22;1766;53.490;10.174;2022-09-09T03:57:08;20.90;56.20
3504;DHT22;1766;53.490;10.174;2022-09-09T03:59:11;20.80;56.20
3504;DHT22;1766;53.490;10.174;2022-09-09T04:01:15;20.90;56.10
3504;DHT22;1766;53.490;10.174;2022-09-09T04:03:18;20.80;56.20
3504;DHT22;1766;53.490;10.174;2022-09-09T04:05:20;20.80;56.20
3504;DHT22;1766;53.490;10.174;2022-09-09T04:07:22;20.80;56.20
3504;DHT22;1766;53.490;10.174;2022-09-09T04:09:24;20.80;56.20
3504;DHT22;1766;53.490;10.174;2022-09-09T04:11:27;20.80;56.10
3504;DHT22;1766;53.490;10.174;2022-09-09T04:13:28;20.80;56.10
3504;DHT22;1766;53.490;10.174;2022-09-09T04:15:31;20.80;56.10
3504;DHT22;1766;53.490;10.174;2022-09-09T04:17:35;20.80;56.10
3504;DHT22;1766;53.490;10.174;2022-09-09T04:19:37;20.80;55.90
3504;DHT22;1766;53.490;10.174;2022-09-09T04:21:40;20.70;55.90
3504;DHT22;1766;53.490;10.174;2022-09-09T04:23:42;20.70;56.00
3504;DHT22;1766;53.490;10.174;2022-09-09T04:25:44;20.70;55.90
3504;DHT22;1766;53.490;10.174;2022-09-09T04:27:53;20.70;56.00
3504;DHT22;1766;53.490;10.174;2022-09-09T04:29:55;20.70;56.10
3504;DHT22;1766;53.490;10.174;2022-09-09T04:31:58;20.70;55.90
3504;DHT22;1766;53.490;10.174;2022-09-09T04:33:59;20.70;56.00
3504;DHT22;1766;53.490;10.174;2022-09-09T04:36:05;20.70;56.40
3504;DHT22;1766;53.490;10.174;2022-09-09T04:38:07;20.70;56.40
3504;DHT22;1766;53.490;10.174;2022-09-09T04:40:09;20.70;56.40
3504;DHT22;1766;53.490;10.174;2022-09-09T04:44:23;20.90;56.50
3504;DHT22;1766;53.490;10.174;2022-09-09T04:46:25;20.70;56.50
3504;DHT22;1766;53.490;10.174;2022-09-09T04:48:27;20.90;56.70
3504;DHT22;1766;53.490;10.174;2022-09-09T04:50:28;21.00;56.90
3504;DHT22;1766;53.490;10.174;2022-09-09T04:52:30;20.90;56.70
3504;DHT22;1766;53.490;10.174;2022-09-09T04:54:32;20.90;56.60
3504;DHT22;1766;53.490;10.174;2022-09-09T04:56:34;21.00;56.80
3504;DHT22;1766;53.490;10.174;2022-09-09T04:58:37;21.00;56.90
3504;DHT22;1766;53.490;10.174;2022-09-09T05:00:41;21.00;56.90
3504;DHT22;1766;53.490;10.174;2022-09-09T05:02:43;21.00;56.70
3504;DHT22;1766;53.490;10.174;2022-09-09T05:04:44;21.00;56.80
3504;DHT22;1766;53.490;10.174;2022-09-09T05:06:46;21.10;56.60
3504;DHT22;1766;53.490;10.174;2022-09-09T05:08:48;21.00;56.40
3504;DHT22;1766;53.490;10.174;2022-09-09T05:10:50;21.00;56.40
3504;DHT22;1766;53.490;10.174;2022-09-09T05:12:52;21.00;56.30
3504;DHT22;1766;53.490;10.174;2022-09-09T05:14:55;21.10;56.30
3504;DHT22;1766;53.490;10.174;2022-09-09T05:16:58;21.00;56.20
3504;DHT22;1766;53.490;10.174;2022-09-09T05:19:00;21.00;56.00
3504;DHT22;1766;53.490;10.174;2022-09-09T05:21:03;21.00;56.00
3504;DHT22;1766;53.490;10.174;2022-09-09T05:23:08;20.90;56.00
3504;DHT22;1766;53.490;10.174;2022-09-09T05:25:11;20.90;56.10
3504;DHT22;1766;53.490;10.174;2022-09-09T05:27:13;21.00;56.20
3504;DHT22;1766;53.490;10.174;2022-09-09T05:29:15;21.20;56.50
3504;DHT22;1766;53.490;10.174;2022-09-09T05:31:19;20.90;56.30
3504;DHT22;1766;53.490;10.174;2022-09-09T05:33:23;21.00;56.40
3504;DHT22;1766;53.490;10.174;2022-09-09T05:35:26;21.00;56.70
3504;DHT22;1766;53.490;10.174;2022-09-09T05:37:28;21.10;56.90
3504;DHT22;1766;53.490;10.174;2022-09-09T05:39:32;21.00;56.90
3504;DHT22;1766;53.490;10.174;2022-09-09T05:41:34;21.10;56.90
3504;DHT22;1766;53.490;10.174;2022-09-09T05:43:37;21.20;57.10
3504;DHT22;1766;53.490;10.174;2022-09-09T05:45:39;21.20;57.10
3504;DHT22;1766;53.490;10.174;2022-09-09T05:47:40;21.20;57.00
3504;DHT22;1766;53.490;10.174;2022-09-09T05:49:43;21.20;57.00
3504;DHT22;1766;53.490;10.174;2022-09-09T05:51:46;21.20;57.00
3504;DHT22;1766;53.490;10.174;2022-09-09T05:53:48;21.30;57.00
3504;DHT22;1766;53.490;10.174;2022-09-09T05:55:58;21.30;57.00
3504;DHT22;1766;53.490;10.174;2022-09-09T05:58:02;21.30;57.20
3504;DHT22;1766;53.490;10.174;2022-09-09T06:00:05;21.30;56.80
3504;DHT22;1766;53.490;10.174;2022-09-09T06:02:08;21.40;57.20
3504;DHT22;1766;53.490;10.174;2022-09-09T06:04:10;21.40;57.20
3504;DHT22;1766;53.490;10.174;2022-09-09T06:06:15;21.50;57.40
3504;DHT22;1766;53.490;10.174;2022-09-09T06:08:18;21.40;57.40
3504;DHT22;1766;53.490;10.174;2022-09-09T06:10:20;21.60;57.50
3504;DHT22;1766;53.490;10.174;2022-09-09T06:12:22;21.60;57.40
3504;DHT22;1766;53.490;10.174;2022-09-09T06:14:24;21.70;57.40
3504;DHT22;1766;53.490;10.174;2022-09-09T06:16:28;21.60;57.40
3504;DHT22;1766;53.490;10.174;2022-09-09T06:18:33;21.60;57.40
3504;DHT22;1766;53.490;10.174;2022-09-09T06:20:34;21.70;57.40
3504;DHT22;1766;53.490;10.174;2022-09-09T06:22:39;21.70;57.40
3504;DHT22;1766;53.490;10.174;2022-09-09T06:24:41;21.70;57.50
3504;DHT22;1766;53.490;10.174;2022-09-09T06:26:45;21.80;57.60
3504;DHT22;1766;53.490;10.174;2022-09-09T06:28:47;21.80;57.60
3504;DHT22;1766;53.490;10.174;2022-09-09T06:30:57;21.80;57.50
3504;DHT22;1766;53.490;10.174;2022-09-09T06:32:59;21.80;57.60
3504;DHT22;1766;53.490;10.174;2022-09-09T06:35:02;21.80;57.60
3504;DHT22;1766;53.490;10.174;2022-09-09T06:37:03;22.00;57.80
3504;DHT22;1766;53.490;10.174;2022-09-09T06:39:08;22.00;57.70
3504;DHT22;1766;53.490;10.174;2022-09-09T06:41:13;22.10;58.00
3504;DHT22;1766;53.490;10.174;2022-09-09T06:43:15;22.20;58.00
3504;DHT22;1766;53.490;10.174;2022-09-09T06:45:17;22.30;57.90
3504;DHT22;1766;53.490;10.174;2022-09-09T06:47:19;22.30;57.90
3504;DHT22;1766;53.490;10.174;2022-09-09T06:49:21;22.40;57.90
3504;DHT22;1766;53.490;10.174;2022-09-09T06:51:25;22.40;58.00
3504;DHT22;1766;53.490;10.174;2022-09-09T06:53:28;22.50;58.40
3504;DHT22;1766;53.490;10.174;2022-09-09T06:55:31;22.50;58.20
3504;DHT22;1766;53.490;10.174;2022-09-09T06:57:33;22.60;58.40
3504;DHT22;1766;53.490;10.174;2022-09-09T06:59:34;22.70;58.30
3504;DHT22;1766;53.490;10.174;2022-09-09T07:01:38;22.80;58.20
3504;DHT22;1766;53.490;10.174;2022-09-09T07:03:41;22.80;58.20
3504;DHT22;1766;53.490;10.174;2022-09-09T07:05:53;22.90;58.40
3504;DHT22;1766;53.490;10.174;2022-09-09T07:07:56;23.00;58.50
3504;DHT22;1766;53.490;10.174;2022-09-09T07:09:58;23.10;58.50
3504;DHT22;1766;53.490;10.174;2022-09-09T07:12:02;23.10;57.80
3504;DHT22;1766;53.490;10.174;2022-09-09T07:14:06;23.20;58.00
3504;DHT22;1766;53.490;10.174;2022-09-09T07:16:10;23.20;57.90
3504;DHT22;1766;53.490;10.174;2022-09-09T07:18:14;23.20;57.80
3504;DHT22;1766;53.490;10.174;2022-09-09T07:20:15;23.30;57.70
3504;DHT22;1766;53.490;10.174;2022-09-09T07:22:17;23.30;57.70
3504;DHT22;1766;53.490;10.174;2022-09-09T07:24:20;23.40;57.70
3504;DHT22;1766;53.490;10.174;2022-09-09T07:26:24;23.40;57.60
3504;DHT22;1766;53.490;10.174;2022-09-09T07:28:28;23.50;57.60
3504;DHT22;1766;53.490;10.174;2022-09-09T07:30:31;23.50;57.30
3504;DHT22;1766;53.490;10.174;2022-09-09T07:32:33;23.50;57.00
3504;DHT22;1766;53.490;10.174;2022-09-09T07:34:35;23.60;57.00
3504;DHT22;1766;53.490;10.174;2022-09-09T07:36:38;23.70;57.10
3504;DHT22;1766;53.490;10.174;2022-09-09T07:38:44;23.70;56.80
3504;DHT22;1766;53.490;10.174;2022-09-09T07:40:47;23.70;56.80
3504;DHT22;1766;53.490;10.174;2022-09-09T07:42:49;23.80;56.90
3504;DHT22;1766;53.490;10.174;2022-09-09T07:44:52;23.90;56.80
3504;DHT22;1766;53.490;10.174;2022-09-09T07:46:55;24.00;56.90
3504;DHT22;1766;53.490;10.174;2022-09-09T07:48:57;24.20;57.00
3504;DHT22;1766;53.490;10.174;2022-09-09T07:51:08;24.30;57.00
3504;DHT22;1766;53.490;10.174;2022-09-09T07:53:11;24.30;57.00
3504;DHT22;1766;53.490;10.174;2022-09-09T07:55:12;24.40;56.70
3504;DHT22;1766;53.490;10.174;2022-09-09T07:57:15;24.40;56.50
3504;DHT22;1766;53.490;10.174;2022-09-09T07:59:17;24.50;56.40
3504;DHT22;1766;53.490;10.174;2022-09-09T08:01:23;24.50;56.30
3504;DHT22;1766;53.490;10.174;2022-09-09T08:03:26;24.60;56.10
3504;DHT22;1766;53.490;10.174;2022-09-09T08:05:27;24.60;55.80
3504;DHT22;1766;53.490;10.174;2022-09-09T08:07:29;24.70;55.60
3504;DHT22;1766;53.490;10.174;2022-09-09T08:09:31;24.70;55.40
3504;DHT22;1766;53.490;10.174;2022-09-09T08:11:34;24.80;55.30
3504;DHT22;1766;53.490;10.174;2022-09-09T08:13:37;24.80;55.20
3504;DHT22;1766;53.490;10.174;2022-09-09T08:15:40;24.80;55.20
3504;DHT22;1766;53.490;10.174;2022-09-09T08:17:45;24.90;55.10
3504;DHT22;1766;53.490;10.174;2022-09-09T08:19:46;25.00;55.10
3504;DHT22;1766;53.490;10.174;2022-09-09T08:21:48;25.00;54.90
3504;DHT22;1766;53.490;10.174;2022-09-09T08:23:51;25.00;54.60
3504;DHT22;1766;53.490;10.174;2022-09-09T08:25:54;25.00;54.50
3504;DHT22;1766;53.490;10.174;2022-09-09T08:27:57;25.00;54.10
3504;DHT22;1766;53.490;10.174;2022-09-09T08:29:59;25.00;54.00
3504;DHT22;1766;53.490;10.174;2022-09-09T08:32:01;25.00;54.00
3504;DHT22;1766;53.490;10.174;2022-09-09T08:34:05;24.90;53.80
3504;DHT22;1766;53.490;10.174;2022-09-09T08:36:10;24.90;53.80
3504;DHT22;1766;53.490;10.174;2022-09-09T08:38:12;24.90;53.60
3504;DHT22;1766;53.490;10.174;2022-09-09T08:40:22;24.90;53.50
3504;DHT22;1766;53.490;10.174;2022-09-09T08:42:36;24.90;53.40
3504;DHT22;1766;53.490;10.174;2022-09-09T08:47:14;25.00;53.20
3504;DHT22;1766;53.490;10.174;2022-09-09T08:49:38;25.00;53.00
3504;DHT22;1766;53.490;10.174;2022-09-09T08:51:48;25.00;53.00
3504;DHT22;1766;53.490;10.174;2022-09-09T08:53:51;25.20;52.80
3504;DHT22;1766;53.490;10.174;2022-09-09T08:55:55;25.30;52.90
3504;DHT22;1766;53.490;10.174;2022-09-09T08:58:05;25.30;52.60
3504;DHT22;1766;53.490;10.174;2022-09-09T09:00:12;25.30;52.10
3504;DHT22;1766;53.490;10.174;2022-09-09T09:02:17;25.40;52.00
3504;DHT22;1766;53.490;10.174;2022-09-09T09:04:36;25.40;52.00
3504;DHT22;1766;53.490;10.174;2022-09-09T09:06:50;25.60;52.10
3504;DHT22;1766;53.490;10.174;2022-09-09T09:08:59;25.60;51.80
3504;DHT22;1766;53.490;10.174;2022-09-09T09:11:03;25.60;51.40
3504;DHT22;1766;53.490;10.174;2022-09-09T09:13:12;25.60;51.00
3504;DHT22;1766;53.490;10.174;2022-09-09T09:15:18;25.60;50.80
3504;DHT22;1766;53.490;10.174;2022-09-09T09:17:25;25.70;50.60
3504;DHT22;1766;53.490;10.174;2022-09-09T09:19:34;25.70;50.60
3504;DHT22;1766;53.490;10.174;2022-09-09T09:21:42;25.80;50.60
3504;DHT22;1766;53.490;10.174;2022-09-09T09:23:48;25.80;50.20
3504;DHT22;1766;53.490;10.174;2022-09-09T09:26:00;25.90;50.20
3504;DHT22;1766;53.490;10.174;2022-09-09T09:28:07;26.00;50.00
3504;DHT22;1766;53.490;10.174;2022-09-09T09:30:20;26.10;50.00
3504;DHT22;1766;53.490;10.174;2022-09-09T09:32:24;26.30;50.00
3504;DHT22;1766;53.490;10.174;2022-09-09T09:34:28;26.40;49.70
3504;DHT22;1766;53.490;10.174;2022-09-09T09:36:39;26.40;49.30
3504;DHT22;1766;53.490;10.174;2022-09-09T09:38:53;26.50;49.30
3504;DHT22;1766;53.490;10.174;2022-09-09T09:40:58;26.70;49.20
3504;DHT22;1766;53.490;10.174;2022-09-09T09:43:01;26.80;48.90
3504;DHT22;1766;53.490;10.174;2022-09-09T09:45:16;26.90;48.70
3504;DHT22;1766;53.490;10.174;2022-09-09T09:47:24;27.10;48.80
3504;DHT22;1766;53.490;10.174;2022-09-09T09:49:27;27.40;48.60
3504;DHT22;1766;53.490;10.174;2022-09-09T09:51:30;27.40;48.00
3504;DHT22;1766;53.490;10.174;2022-09-09T09:53:36;27.40;47.50
3504;DHT22;1766;53.490;10.174;2022-09-09T09:55:48;27.40;47.40
3504;DHT22;1766;53.490;10.174;2022-09-09T09:58:01;27.40;47.40
3504;DHT22;1766;53.490;10.174;2022-09-09T10:00:13;27.40;47.30
3504;DHT22;1766;53.490;10.174;2022-09-09T10:02:19;27.40;47.00
3504;DHT22;1766;53.490;10.174;2022-09-09T10:04:25;27.50;46.80
3504;DHT22;1766;53.490;10.174;2022-09-09T10:06:31;27.50;46.60
3504;DHT22;1766;53.490;10.174;2022-09-09T10:08:44;27.40;46.50
3504;DHT22;1766;53.490;10.174;2022-09-09T10:10:56;27.30;46.40
3504;DHT22;1766;53.490;10.174;2022-09-09T10:13:10;27.20;46.20
3504;DHT22;1766;53.490;10.174;2022-09-09T10:15:26;27.20;46.20
3504;DHT22;1766;53.490;10.174;2022-09-09T10:17:38;27.20;46.30
3504;DHT22;1766;53.490;10.174;2022-09-09T10:19:55;27.30;46.50
3504;DHT22;1766;53.490;10.174;2022-09-09T10:22:08;27.30;46.40
3504;DHT22;1766;53.490;10.174;2022-09-09T10:24:30;27.40;46.50
3504;DHT22;1766;53.490;10.174;2022-09-09T10:26:50;27.50;46.50
3504;DHT22;1766;53.490;10.174;2022-09-09T10:29:11;27.50;46.20
3504;DHT22;1766;53.490;10.174;2022-09-09T10:31:27;27.50;46.10
3504;DHT22;1766;53.490;10.174;2022-09-09T10:33:39;27.60;45.80
3504;DHT22;1766;53.490;10.174;2022-09-09T10:35:53;27.50;45.50
3504;DHT22;1766;53.490;10.174;2022-09-09T10:38:13;27.60;45.60
3504;DHT22;1766;53.490;10.174;2022-09-09T10:40:27;27.50;45.70
3504;DHT22;1766;53.490;10.174;2022-09-09T10:42:33;27.50;45.80
3504;DHT22;1766;53.490;10.174;2022-09-09T10:44:47;27.50;45.40
3504;DHT22;1766;53.490;10.174;2022-09-09T10:47:07;27.50;45.50
3504;DHT22;1766;53.490;10.174;2022-09-09T10:49:24;27.40;46.00
3504;DHT22;1766;53.490;10.174;2022-09-09T10:51:39;27.40;45.90
3504;DHT22;1766;53.490;10.174;2022-09-09T10:53:52;27.50;45.90
3504;DHT22;1766;53.490;10.174;2022-09-09T10:56:03;27.50;46.10
3504;DHT22;1766;53.490;10.174;2022-09-09T10:58:12;27.60;46.10
3504;DHT22;1766;53.490;10.174;2022-09-09T11:00:19;27.60;46.00
3504;DHT22;1766;53.490;10.174;2022-09-09T11:02:26;27.60;45.80
3504;DHT22;1766;53.490;10.174;2022-09-09T11:04:31;27.60;45.70
3504;DHT22;1766;53.490;10.174;2022-09-09T11:06:44;27.60;45.50
3504;DHT22;1766;53.490;10.174;2022-09-09T11:08:49;27.60;45.50
3504;DHT22;1766;53.490;10.174;2022-09-09T11:10:58;27.70;45.50
3504;DHT22;1766;53.490;10.174;2022-09-09T11:13:08;27.80;45.70
3504;DHT22;1766;53.490;10.174;2022-09-09T11:15:18;27.90;45.70
3504;DHT22;1766;53.490;10.174;2022-09-09T11:17:26;28.00;45.60
3504;DHT22;1766;53.490;10.174;2022-09-09T11:19:34;28.10;45.40
3504;DHT22;1766;53.490;10.174;2022-09-09T11:21:39;28.10;45.20
3504;DHT22;1766;53.490;10.174;2022-09-09T11:23:48;28.20;45.10
3504;DHT22;1766;53.490;10.174;2022-09-09T11:25:55;28.30;45.30
3504;DHT22;1766;53.490;10.174;2022-09-09T11:28:19;28.60;45.50
3504;DHT22;1766;53.490;10.174;2022-09-09T11:30:35;29.00;45.20
3504;DHT22;1766;53.490;10.174;2022-09-09T11:32:59;29.40;44.50
3504;DHT22;1766;53.490;10.174;2022-09-09T11:35:19;29.50;44.00
3504;DHT22;1766;53.490;10.174;2022-09-09T11:37:45;29.60;43.20
3504;DHT22;1766;53.490;10.174;2022-09-09T11:40:08;29.40;43.00
3504;DHT22;1766;53.490;10.174;2022-09-09T11:42:18;29.30;42.80
3504;DHT22;1766;53.490;10.174;2022-09-09T11:44:26;29.30;43.40
3504;DHT22;1766;53.490;10.174;2022-09-09T11:46:34;29.20;42.90
3504;DHT22;1766;53.490;10.174;2022-09-09T11:48:40;29.10;42.60
3504;DHT22;1766;53.490;10.174;2022-09-09T11:50:44;29.00;42.70
3504;DHT22;1766;53.490;10.174;2022-09-09T11:52:47;29.00;43.00
3504;DHT22;1766;53.490;10.174;2022-09-09T11:54:50;28.90;42.70
3504;DHT22;1766;53.490;10.174;2022-09-09T11:56:52;29.00;42.50
3504;DHT22;1766;53.490;10.174;2022-09-09T11:58:56;29.00;42.40
3504;DHT22;1766;53.490;10.174;2022-09-09T12:01:13;28.90;42.50
3504;DHT22;1766;53.490;10.174;2022-09-09T12:03:32;28.80;42.40
3504;DHT22;1766;53.490;10.174;2022-09-09T12:05:40;28.60;42.30
3504;DHT22;1766;53.490;10.174;2022-09-09T12:07:50;28.50;42.60
3504;DHT22;1766;53.490;10.174;2022-09-09T12:09:57;28.30;43.00
3504;DHT22;1766;53.490;10.174;2022-09-09T12:12:21;28.10;43.40
3504;DHT22;1766;53.490;10.174;2022-09-09T12:14:35;27.90;43.80
3504;DHT22;1766;53.490;10.174;2022-09-09T12:16:40;27.80;44.60
3504;DHT22;1766;53.490;10.174;2022-09-09T12:18:43;27.90;44.40
3504;DHT22;1766;53.490;10.174;2022-09-09T12:20:54;27.80;44.40
3504;DHT22;1766;53.490;10.174;2022-09-09T12:23:18;27.80;44.90
3504;DHT22;1766;53.490;10.174;2022-09-09T12:25:31;27.70;45.10
3504;DHT22;1766;53.490;10.174;2022-09-09T12:27:41;27.80;45.20
3504;DHT22;1766;53.490;10.174;2022-09-09T12:29:53;27.90;45.40
3504;DHT22;1766;53.490;10.174;2022-09-09T12:32:02;28.00;45.80
3504;DHT22;1766;53.490;10.174;2022-09-09T12:34:10;28.10;45.60
3504;DHT22;1766;53.490;10.174;2022-09-09T12:36:17;28.20;45.60
3504;DHT22;1766;53.490;10.174;2022-09-09T12:38:26;28.20;45.70
3504;DHT22;1766;53.490;10.174;2022-09-09T12:40:32;28.30;45.90
3504;DHT22;1766;53.490;10.174;2022-09-09T12:42:39;28.40;45.90
3504;DHT22;1766;53.490;10.174;2022-09-09T12:44:51;28.30;45.90
3504;DHT22;1766;53.490;10.174;2022-09-09T12:46:54;28.50;46.10
3504;DHT22;1766;53.490;10.174;2022-09-09T12:48:58;28.50;45.90
3504;DHT22;1766;53.490;10.174;2022-09-09T12:51:00;28.50;45.70
3504;DHT22;1766;53.490;10.174;2022-09-09T12:53:07;28.50;45.70
3504;DHT22;1766;53.490;10.174;2022-09-09T12:55:17;28.50;45.80
3504;DHT22;1766;53.490;10.174;2022-09-09T12:57:24;28.60;45.70
3504;DHT22;1766;53.490;10.174;2022-09-09T12:59:35;28.60;45.60
3504;DHT22;1766;53.490;10.174;2022-09-09T13:01:38;28.70;45.70
3504;DHT22;1766;53.490;10.174;2022-09-09T13:03:42;28.90;45.60
3504;DHT22;1766;53.490;10.174;2022-09-09T13:05:49;29.00;45.40
3504;DHT22;1766;53.490;10.174;2022-09-09T13:07:52;29.10;45.00
3504;DHT22;1766;53.490;10.174;2022-09-09T13:10:03;29.10;44.90
3504;DHT22;1766;53.490;10.174;2022-09-09T13:12:06;29.10;44.70
3504;DHT22;1766;53.490;10.174;2022-09-09T13:14:17;29.00;44.60
3504;DHT22;1766;53.490;10.174;2022-09-09T13:16:22;28.80;44.50
3504;DHT22;1766;53.490;10.174;2022-09-09T13:18:26;28.70;44.40
3504;DHT22;1766;53.490;10.174;2022-09-09T13:20:33;28.60;44.20
3504;DHT22;1766;53.490;10.174;2022-09-09T13:22:37;28.50;44.10
3504;DHT22;1766;53.490;10.174;2022-09-09T13:24:41;28.30;44.30
3504;DHT22;1766;53.490;10.174;2022-09-09T13:26:43;28.20;44.10
3504;DHT22;1766;53.490;10.174;2022-09-09T13:28:45;28.00;44.10
3504;DHT22;1766;53.490;10.174;2022-09-09T13:30:56;27.90;44.10
3504;DHT22;1766;53.490;10.174;2022-09-09T13:33:04;27.80;44.40
3504;DHT22;1766;53.490;10.174;2022-09-09T13:35:23;27.70;44.50
3504;DHT22;1766;53.490;10.174;2022-09-09T13:37:30;27.50;44.80
3504;DHT22;1766;53.490;10.174;2022-09-09T13:39:36;27.40;44.90
3504;DHT22;1766;53.490;10.174;2022-09-09T13:41:43;27.20;45.10